createdAt,value
2019-01-14T00:01:04.294Z,35.23
2019-01-14T00:03:34.141Z,29.67
2019-01-14T00:06:10.089Z,27.03
2019-01-14T00:08:35.634Z,27.40
2019-01-14T00:11:05.431Z,33.67
2019-01-14T00:13:35.037Z,15.17
2019-01-14T00:16:04.800Z,19.63
2019-01-14T00:18:34.737Z,22.40
2019-01-14T00:21:04.718Z,31.00
2019-01-14T00:23:34.323Z,27.73
2019-01-14T00:26:04.629Z,27.67
2019-01-14T00:28:34.246Z,21.70
2019-01-14T00:31:04.344Z,26.67
2019-01-14T00:33:35.025Z,27.47
2019-01-14T00:36:05.528Z,17.90
2019-01-14T00:38:35.221Z,23.43
2019-01-14T00:41:05.321Z,25.47
2019-01-14T00:43:34.934Z,24.03
2019-01-14T00:46:04.990Z,26.23
2019-01-14T00:48:34.602Z,27.40
2019-01-14T00:51:04.453Z,21.60
2019-01-14T00:53:34.052Z,22.53
2019-01-14T00:56:03.732Z,19.93
2019-01-14T00:58:33.345Z,17.87
2019-01-14T01:01:03.133Z,16.90
2019-01-14T01:03:32.741Z,18.27
2019-01-14T01:06:02.434Z,17.17
2019-01-14T01:08:32.081Z,19.60
2019-01-14T01:11:01.692Z,17.40
2019-01-14T01:13:31.300Z,16.53
2019-01-14T01:16:01.177Z,20.83
2019-01-14T01:18:30.856Z,16.53
2019-01-14T01:21:00.944Z,21.70
2019-01-14T01:23:30.569Z,22.43
2019-01-14T01:26:00.550Z,15.70
2019-01-14T01:28:30.280Z,15.20
2019-01-14T01:31:00.172Z,24.33
2019-01-14T01:33:29.816Z,22.70
2019-01-14T01:35:59.494Z,13.90
2019-01-14T01:38:29.176Z,20.33
2019-01-14T01:40:58.781Z,12.57
2019-01-14T01:43:28.397Z,22.70
2019-01-14T01:45:58.005Z,16.93
2019-01-14T01:48:27.629Z,14.97
2019-01-14T01:50:57.468Z,12.60
2019-01-14T01:53:27.388Z,20.00
2019-01-14T01:55:57.015Z,16.30
2019-01-14T01:58:26.634Z,13.83
2019-01-14T02:00:56.591Z,16.00
2019-01-14T02:03:26.456Z,16.97
2019-01-14T02:05:56.372Z,13.33
2019-01-14T02:08:25.998Z,17.30
2019-01-14T02:10:55.973Z,19.20
2019-01-14T02:13:25.584Z,19.63
2019-01-14T02:15:55.659Z,25.30
2019-01-14T02:18:25.273Z,12.20
2019-01-14T02:20:54.956Z,13.63
2019-01-14T02:23:24.564Z,17.07
2019-01-14T02:25:54.252Z,17.60
2019-01-14T02:28:24.382Z,24.10
2019-01-14T02:30:54.084Z,19.57
2019-01-14T02:33:23.705Z,16.23
2019-01-14T02:35:53.314Z,17.60
2019-01-14T02:38:22.924Z,14.67
2019-01-14T02:40:52.529Z,22.93
2019-01-14T02:43:22.159Z,16.10
2019-01-14T02:45:51.771Z,13.33
2019-01-14T02:48:21.673Z,21.90
2019-01-14T02:50:51.271Z,19.47
2019-01-14T02:53:21.390Z,14.60
2019-01-14T02:55:51.133Z,21.73
2019-01-14T02:58:20.809Z,14.17
2019-01-14T03:00:51.418Z,18.03
2019-01-14T03:03:21.312Z,15.53
2019-01-14T03:05:51.424Z,16.00
2019-01-14T03:08:21.037Z,16.60
2019-01-14T03:10:50.639Z,23.97
2019-01-14T03:13:20.251Z,12.40
2019-01-14T03:15:49.864Z,16.17
2019-01-14T03:18:19.789Z,16.23
2019-01-14T03:20:49.582Z,17.03
2019-01-14T03:23:19.457Z,15.93
2019-01-14T03:25:57.782Z,19.67
2019-01-14T03:28:20.381Z,15.23
2019-01-14T03:30:50.326Z,12.43
2019-01-14T03:33:21.089Z,15.37
2019-01-14T03:35:51.890Z,15.60
2019-01-14T03:38:22.556Z,23.63
2019-01-14T03:40:52.646Z,13.87
2019-01-14T03:43:22.264Z,15.30
2019-01-14T03:45:52.260Z,19.23
2019-01-14T03:48:21.887Z,15.60
2019-01-14T03:50:51.800Z,15.80
2019-01-14T03:53:21.423Z,13.40
2019-01-14T03:55:51.320Z,12.07
2019-01-14T03:58:21.257Z,10.47
2019-01-14T04:00:50.870Z,10.53
2019-01-14T04:03:20.713Z,15.53
2019-01-14T04:05:50.575Z,12.93
2019-01-14T04:08:20.530Z,9.57
2019-01-14T04:10:50.133Z,6.80
2019-01-14T04:13:19.794Z,9.57
2019-01-14T04:15:49.970Z,9.23
2019-01-14T04:18:19.625Z,8.97
2019-01-14T04:20:49.338Z,11.67
2019-01-14T04:23:19.116Z,7.33
2019-01-14T04:25:49.068Z,5.70
2019-01-14T04:28:19.035Z,14.13
2019-01-14T04:30:48.766Z,10.83
2019-01-14T04:33:18.700Z,9.83
2019-01-14T04:35:48.480Z,8.67
2019-01-14T04:38:18.298Z,10.13
2019-01-14T04:40:47.976Z,8.93
2019-01-14T04:43:17.957Z,10.37
2019-01-14T04:45:47.777Z,11.17
2019-01-14T04:48:17.519Z,8.80
2019-01-14T04:50:47.181Z,10.23
2019-01-14T04:53:16.908Z,10.00
2019-01-14T04:55:46.913Z,13.07
2019-01-14T04:58:16.604Z,10.87
2019-01-14T05:00:46.317Z,11.33
2019-01-14T05:03:16.083Z,15.73
2019-01-14T05:05:45.769Z,17.43
2019-01-14T05:08:15.569Z,16.10
2019-01-14T05:10:45.289Z,14.60
2019-01-14T05:13:15.165Z,13.83
2019-01-14T05:15:44.826Z,12.80
2019-01-14T05:18:14.573Z,11.03
2019-01-14T05:20:44.250Z,18.47
2019-01-14T05:23:13.959Z,19.10
2019-01-14T05:25:43.616Z,15.43
2019-01-14T05:28:13.272Z,11.60
2019-01-14T05:30:43.094Z,11.47
2019-01-14T05:33:13.067Z,15.23
2019-01-14T05:35:42.818Z,12.40
2019-01-14T05:38:13.012Z,16.57
2019-01-14T05:40:42.909Z,14.90
2019-01-14T05:43:12.569Z,9.90
2019-01-14T05:45:42.242Z,17.40
2019-01-14T05:48:11.886Z,16.50
2019-01-14T05:50:41.606Z,17.80
2019-01-14T05:53:11.565Z,14.50
2019-01-14T05:55:41.237Z,22.27
2019-01-14T05:58:11.057Z,12.40
2019-01-14T06:00:47.187Z,14.07
2019-01-14T06:03:18.197Z,15.80
2019-01-14T06:05:48.105Z,12.13
2019-01-14T06:08:17.753Z,13.67
2019-01-14T06:10:47.648Z,12.83
2019-01-14T06:13:17.309Z,14.63
2019-01-14T06:15:47.333Z,12.77
2019-01-14T06:18:17.150Z,9.37
2019-01-14T06:20:46.871Z,14.53
2019-01-14T06:23:16.608Z,10.30
2019-01-14T06:25:46.850Z,9.60
2019-01-14T06:28:17.102Z,13.23
2019-01-14T06:30:47.083Z,14.17
2019-01-14T06:33:16.895Z,15.53
2019-01-14T06:35:46.547Z,15.03
2019-01-14T06:38:16.618Z,13.17
2019-01-14T06:40:46.637Z,15.90
2019-01-14T06:43:16.776Z,12.43
2019-01-14T06:45:46.526Z,6.83
2019-01-14T06:48:16.924Z,11.47
2019-01-14T06:50:47.091Z,11.17
2019-01-14T06:53:17.036Z,14.13
2019-01-14T06:55:46.703Z,13.43
2019-01-14T06:58:16.487Z,19.60
2019-01-14T07:00:46.398Z,11.30
2019-01-14T07:03:16.143Z,11.63
2019-01-14T07:05:46.203Z,12.57
2019-01-14T07:08:16.125Z,12.43
2019-01-14T07:10:45.901Z,7.27
2019-01-14T07:13:15.749Z,8.37
2019-01-14T07:15:45.365Z,13.80
2019-01-14T07:18:15.083Z,17.43
2019-01-14T07:20:45.371Z,10.57
2019-01-14T07:23:15.632Z,10.93
2019-01-14T07:25:46.239Z,9.40
2019-01-14T07:28:15.901Z,11.13
2019-01-14T07:30:45.627Z,6.07
2019-01-14T07:33:15.877Z,9.20
2019-01-14T07:35:45.644Z,9.70
2019-01-14T07:38:15.284Z,9.17
2019-01-14T07:40:45.044Z,7.03
2019-01-14T07:43:14.745Z,11.17
2019-01-14T07:45:44.429Z,7.47
2019-01-14T07:48:14.095Z,7.57
2019-01-14T07:50:44.050Z,8.87
2019-01-14T07:53:13.997Z,8.70
2019-01-14T07:55:44.151Z,11.90
2019-01-14T07:58:13.765Z,9.93
2019-01-14T08:00:43.378Z,7.93
2019-01-14T08:03:12.994Z,9.77
2019-01-14T08:05:42.607Z,9.37
2019-01-14T08:08:14.120Z,8.20
2019-01-14T08:10:43.938Z,3.73
2019-01-14T08:13:13.966Z,6.80
2019-01-14T08:15:43.581Z,7.77
2019-01-14T08:18:13.181Z,8.00
2019-01-14T08:20:42.813Z,9.23
2019-01-14T08:23:13.497Z,9.37
2019-01-14T08:25:43.117Z,5.13
2019-01-14T08:28:12.727Z,7.20
2019-01-14T08:30:42.626Z,10.50
2019-01-14T08:33:12.266Z,8.73
2019-01-14T08:35:42.247Z,8.77
2019-01-14T08:38:11.928Z,8.93
2019-01-14T08:40:41.551Z,10.60
2019-01-14T08:43:11.170Z,9.90
2019-01-14T08:45:40.780Z,11.70
2019-01-14T08:48:10.717Z,7.93
2019-01-14T08:50:40.329Z,11.33
2019-01-14T08:53:10.209Z,12.07
2019-01-14T08:55:40.250Z,6.53
2019-01-14T08:58:09.880Z,6.43
2019-01-14T09:00:39.488Z,7.83
2019-01-14T09:03:09.485Z,9.27
2019-01-14T09:05:39.403Z,10.90
2019-01-14T09:08:09.044Z,12.60
2019-01-14T09:10:38.730Z,9.73
2019-01-14T09:13:08.358Z,13.03
2019-01-14T09:15:37.948Z,8.70
2019-01-14T09:18:07.676Z,9.00
2019-01-14T09:20:37.287Z,6.23
2019-01-14T09:23:06.997Z,13.40
2019-01-14T09:25:36.605Z,9.30
2019-01-14T09:28:06.408Z,12.97
2019-01-14T09:30:36.483Z,10.17
2019-01-14T09:33:06.414Z,8.03
2019-01-14T09:35:36.429Z,6.97
2019-01-14T09:38:06.457Z,6.23
2019-01-14T09:40:36.311Z,4.97
2019-01-14T09:43:06.593Z,7.47
2019-01-14T09:45:36.201Z,6.40
2019-01-14T09:48:05.888Z,6.43
2019-01-14T09:50:35.573Z,10.23
2019-01-14T09:53:05.264Z,11.37
2019-01-14T09:55:34.872Z,8.63
2019-01-14T09:58:04.525Z,8.47
2019-01-14T10:00:34.147Z,8.67
2019-01-14T10:03:03.929Z,9.57
2019-01-14T10:05:33.796Z,9.60
2019-01-14T10:08:03.738Z,8.53
2019-01-14T10:10:33.340Z,10.07
2019-01-14T10:13:02.943Z,5.50
2019-01-14T10:15:32.657Z,8.00
2019-01-14T10:18:04.798Z,5.57
2019-01-14T10:20:34.865Z,8.07
2019-01-14T10:23:04.734Z,5.83
2019-01-14T10:25:35.005Z,6.23
2019-01-14T10:28:05.040Z,8.63
2019-01-14T10:30:35.877Z,17.50
2019-01-14T10:33:05.950Z,9.13
2019-01-14T10:35:35.805Z,7.07
2019-01-14T10:38:05.875Z,3.03
2019-01-14T10:40:35.531Z,5.63
2019-01-14T10:43:05.361Z,7.13
2019-01-14T10:45:35.240Z,6.30
2019-01-14T10:48:05.413Z,9.93
2019-01-14T10:50:35.480Z,4.17
2019-01-14T10:53:05.401Z,5.23
2019-01-14T10:55:35.014Z,8.30
2019-01-14T10:58:04.792Z,6.23
2019-01-14T11:00:34.420Z,6.70
2019-01-14T11:03:04.581Z,12.97
2019-01-14T11:05:34.436Z,6.33
2019-01-14T11:08:04.145Z,1.77
2019-01-14T11:10:33.840Z,8.47
2019-01-14T11:13:03.782Z,7.63
2019-01-14T11:15:33.406Z,9.03
2019-01-14T11:18:03.084Z,3.13
2019-01-14T11:20:33.136Z,8.70
2019-01-14T11:23:03.376Z,4.03
2019-01-14T11:25:33.406Z,4.57
2019-01-14T11:28:03.299Z,6.90
2019-01-14T11:30:33.531Z,3.93
2019-01-14T11:33:03.290Z,5.42
2019-01-14T11:35:33.510Z,2.13
2019-01-14T11:38:03.125Z,2.67
2019-01-14T11:40:35.748Z,5.90
2019-01-14T11:43:05.466Z,2.37
2019-01-14T11:45:35.153Z,3.77
2019-01-14T11:48:05.485Z,1.13
2019-01-14T11:50:35.089Z,4.50
2019-01-14T11:53:05.234Z,2.00
2019-01-14T11:55:34.897Z,6.07
2019-01-14T11:58:05.661Z,4.57
2019-01-14T12:00:37.493Z,4.50
2019-01-14T12:03:08.744Z,5.27
2019-01-14T12:05:38.445Z,8.70
2019-01-14T12:08:09.236Z,6.77
2019-01-14T12:10:38.925Z,5.30
2019-01-14T12:13:08.690Z,6.80
2019-01-14T12:15:38.740Z,6.37
2019-01-14T12:18:08.599Z,4.17
2019-01-14T12:20:38.188Z,4.73
2019-01-14T12:23:07.981Z,5.70
2019-01-14T12:25:37.606Z,4.40
2019-01-14T12:28:07.265Z,7.67
2019-01-14T12:30:39.386Z,3.77
2019-01-14T12:33:09.106Z,5.97
2019-01-14T12:35:38.709Z,5.20
2019-01-14T12:38:08.677Z,6.97
2019-01-14T12:40:38.627Z,6.37
2019-01-14T12:43:08.312Z,6.53
2019-01-14T12:45:38.006Z,8.20
2019-01-14T12:48:07.757Z,4.30
2019-01-14T12:50:37.520Z,7.00
2019-01-14T12:53:07.370Z,6.20
2019-01-14T12:55:36.980Z,6.13
2019-01-14T12:58:07.910Z,6.47
2019-01-14T13:00:37.526Z,6.30
2019-01-14T13:03:07.137Z,6.63
2019-01-14T13:05:36.885Z,3.07
2019-01-14T13:08:06.936Z,4.77
2019-01-14T13:10:36.576Z,4.37
2019-01-14T13:13:06.188Z,3.67
2019-01-14T13:15:36.134Z,4.07
2019-01-14T13:18:05.874Z,6.30
2019-01-14T13:20:35.556Z,4.83
2019-01-14T13:23:05.650Z,4.13
2019-01-14T13:25:35.292Z,5.23
2019-01-14T13:28:05.165Z,3.70
2019-01-14T13:30:35.029Z,9.17
2019-01-14T13:33:05.491Z,6.27
2019-01-14T13:35:35.109Z,8.73
2019-01-14T13:38:04.892Z,9.23
2019-01-14T13:40:34.581Z,11.93
2019-01-14T13:43:04.334Z,5.33
2019-01-14T13:45:34.204Z,8.57
2019-01-14T13:48:04.298Z,9.40
2019-01-14T13:50:33.932Z,9.77
2019-01-14T13:53:03.714Z,8.87
2019-01-14T13:55:33.405Z,8.83
2019-01-14T13:58:03.084Z,9.93
2019-01-14T14:00:33.001Z,5.17
2019-01-14T14:03:02.616Z,9.10
2019-01-14T14:05:32.520Z,10.47
2019-01-14T14:08:02.157Z,5.97
2019-01-14T14:10:32.732Z,5.60
2019-01-14T14:13:02.346Z,6.87
2019-01-14T14:15:32.096Z,7.03
2019-01-14T14:18:02.088Z,9.90
2019-01-14T14:20:32.765Z,6.27
2019-01-14T14:23:02.689Z,8.50
2019-01-14T14:25:32.305Z,7.10
2019-01-14T14:28:01.921Z,8.03
2019-01-14T14:30:34.149Z,9.57
2019-01-14T14:33:04.376Z,7.47
2019-01-14T14:35:34.365Z,7.10
2019-01-14T14:38:05.113Z,6.47
2019-01-14T14:40:35.126Z,10.77
2019-01-14T14:43:05.352Z,9.40
2019-01-14T14:45:35.038Z,11.73
2019-01-14T14:48:05.305Z,6.70
2019-01-14T14:50:34.998Z,11.87
2019-01-14T14:53:04.718Z,4.03
2019-01-14T14:55:34.416Z,8.60
2019-01-14T14:58:04.247Z,8.37
2019-01-14T15:00:34.014Z,10.77
2019-01-14T15:03:04.369Z,10.23
2019-01-14T15:05:33.968Z,8.43
2019-01-14T15:08:03.638Z,12.83
2019-01-14T15:10:34.293Z,7.63
2019-01-14T15:13:04.032Z,11.33
2019-01-14T15:15:33.644Z,11.33
2019-01-14T15:18:03.361Z,12.30
2019-01-14T15:20:33.541Z,14.60
2019-01-14T15:23:03.236Z,20.83
2019-01-14T15:25:33.535Z,14.00
2019-01-14T15:28:03.136Z,9.53
2019-01-14T15:30:33.067Z,11.20
2019-01-14T15:33:02.668Z,9.50
2019-01-14T15:35:32.348Z,8.70
2019-01-14T15:38:02.193Z,10.50
2019-01-14T15:40:31.902Z,8.63
2019-01-14T15:43:01.785Z,11.03
2019-01-14T15:45:32.469Z,8.10
2019-01-14T15:48:02.119Z,10.70
2019-01-14T15:50:32.073Z,10.47
2019-01-14T15:53:02.176Z,9.53
2019-01-14T15:55:32.328Z,8.73
2019-01-14T15:58:02.482Z,9.47
2019-01-14T16:00:32.293Z,10.40
2019-01-14T16:03:01.947Z,11.23
2019-01-14T16:05:31.923Z,9.77
2019-01-14T16:08:01.921Z,9.80
2019-01-14T16:10:31.731Z,10.23
2019-01-14T16:13:01.444Z,12.60
2019-01-14T16:15:31.129Z,12.57
2019-01-14T16:18:00.865Z,9.00
2019-01-14T16:20:30.527Z,12.77
2019-01-14T16:23:00.411Z,11.70
2019-01-14T16:25:30.410Z,18.37
2019-01-14T16:28:00.087Z,10.07
2019-01-14T16:30:29.960Z,15.60
2019-01-14T16:32:59.629Z,13.33
2019-01-14T16:35:29.523Z,12.37
2019-01-14T16:37:59.276Z,17.97
2019-01-14T16:40:29.083Z,23.33
2019-01-14T16:42:58.698Z,24.32
2019-01-14T16:45:28.705Z,31.97
2019-01-14T16:47:58.501Z,15.73
2019-01-14T16:50:28.369Z,16.60
2019-01-14T16:52:58.352Z,11.23
2019-01-14T16:55:56.670Z,13.33
2019-01-14T16:58:26.718Z,21.17
2019-01-14T17:00:56.341Z,21.33
2019-01-14T17:03:26.268Z,17.00
2019-01-14T17:05:55.960Z,12.07
2019-01-14T17:08:25.657Z,13.30
2019-01-14T17:10:56.459Z,11.53
2019-01-14T17:13:26.273Z,18.40
2019-01-14T17:15:56.125Z,17.37
2019-01-14T17:18:25.744Z,13.87
2019-01-14T17:20:55.378Z,11.73
2019-01-14T17:23:25.119Z,20.30
2019-01-14T17:25:54.729Z,13.73
2019-01-14T17:28:24.722Z,9.70
2019-01-14T17:30:54.852Z,16.40
2019-01-14T17:33:25.660Z,17.37
2019-01-14T17:35:55.268Z,14.00
2019-01-14T17:38:26.084Z,12.33
2019-01-14T17:40:56.484Z,14.87
2019-01-14T17:43:26.470Z,16.67
2019-01-14T17:45:56.377Z,8.00
2019-01-14T17:48:26.262Z,9.27
2019-01-14T17:50:55.885Z,10.93
2019-01-14T17:53:25.597Z,16.20
2019-01-14T17:55:55.206Z,13.30
2019-01-14T17:58:24.862Z,10.93
2019-01-14T18:00:55.432Z,14.10
2019-01-14T18:03:25.708Z,9.43
2019-01-14T18:05:55.305Z,10.53
2019-01-14T18:08:24.925Z,14.43
2019-01-14T18:11:01.520Z,12.20
2019-01-14T18:13:26.265Z,11.93
2019-01-14T18:15:55.893Z,18.20
2019-01-14T18:18:25.492Z,13.40
2019-01-14T18:20:55.108Z,9.97
2019-01-14T18:23:25.002Z,11.30
2019-01-14T18:25:54.801Z,12.07
2019-01-14T18:28:24.413Z,12.50
2019-01-14T18:30:54.354Z,12.97
2019-01-14T18:33:23.983Z,8.63
2019-01-14T18:35:53.588Z,9.90
2019-01-14T18:38:23.218Z,14.10
2019-01-14T18:40:52.842Z,12.50
2019-01-14T18:43:22.523Z,14.77
2019-01-14T18:45:52.525Z,12.00
2019-01-14T18:48:22.129Z,13.33
2019-01-14T18:50:51.745Z,17.37
2019-01-14T18:53:21.347Z,11.00
2019-01-14T18:55:51.048Z,9.30
2019-01-14T18:58:20.671Z,14.47
2019-01-14T19:00:50.789Z,16.43
2019-01-14T19:03:20.656Z,11.40
2019-01-14T19:05:50.435Z,12.57
2019-01-14T19:08:20.116Z,12.23
2019-01-14T19:10:54.318Z,9.67
2019-01-14T19:13:21.110Z,9.60
2019-01-14T19:15:51.008Z,9.90
2019-01-14T19:18:20.956Z,13.03
2019-01-14T19:20:50.721Z,8.97
2019-01-14T19:23:20.412Z,9.87
2019-01-14T19:25:50.148Z,5.73
2019-01-14T19:28:19.769Z,10.23
2019-01-14T19:30:49.384Z,8.90
2019-01-14T19:33:19.302Z,13.03
2019-01-14T19:35:48.953Z,7.87
2019-01-14T19:38:18.563Z,13.00
2019-01-14T19:40:48.258Z,12.70
2019-01-14T19:43:17.973Z,12.97
2019-01-14T19:45:49.951Z,14.20
2019-01-14T19:48:19.361Z,14.33
2019-01-14T19:50:49.251Z,16.03
2019-01-14T19:53:18.963Z,15.80
2019-01-14T19:55:48.801Z,10.80
2019-01-14T19:58:18.652Z,14.47
2019-01-14T20:00:48.489Z,14.47
2019-01-14T20:03:18.488Z,13.63
2019-01-14T20:05:48.177Z,14.47
2019-01-14T20:08:19.549Z,9.63
2019-01-14T20:10:49.897Z,7.77
2019-01-14T20:13:19.897Z,13.00
2019-01-14T20:15:49.897Z,11.10
2019-01-14T20:18:19.766Z,12.27
2019-01-14T20:20:49.631Z,15.53
2019-01-14T20:23:19.259Z,14.77
2019-01-14T20:25:48.889Z,14.27
2019-01-14T20:28:18.509Z,14.70
2019-01-14T20:30:48.464Z,18.07
2019-01-14T20:33:19.616Z,10.67
2019-01-14T20:35:49.371Z,14.37
2019-01-14T20:38:19.252Z,16.87
2019-01-14T20:40:48.870Z,13.57
2019-01-14T20:43:18.481Z,13.73
2019-01-14T20:45:48.384Z,15.13
2019-01-14T20:48:18.322Z,15.63
2019-01-14T20:50:47.933Z,15.33
2019-01-14T20:53:17.598Z,17.40
2019-01-14T20:55:47.205Z,26.80
2019-01-14T20:58:16.843Z,16.10
2019-01-14T21:00:46.798Z,17.37
2019-01-14T21:03:16.570Z,14.33
2019-01-14T21:05:46.421Z,19.10
2019-01-14T21:08:16.217Z,13.70
2019-01-14T21:10:45.881Z,16.97
2019-01-14T21:13:15.599Z,17.80
2019-01-14T21:15:45.512Z,17.57
2019-01-14T21:18:15.154Z,12.10
2019-01-14T21:20:44.772Z,16.77
2019-01-14T21:23:14.672Z,14.87
2019-01-14T21:25:44.298Z,18.87
2019-01-14T21:28:13.955Z,13.97
2019-01-14T21:30:44.330Z,14.33
2019-01-14T21:33:14.029Z,16.80
2019-01-14T21:35:43.640Z,15.37
2019-01-14T21:38:13.307Z,19.43
2019-01-14T21:40:43.178Z,19.77
2019-01-14T21:43:13.165Z,19.87
2019-01-14T21:45:42.867Z,20.00
2019-01-14T21:48:17.159Z,19.17
2019-01-14T21:50:44.004Z,22.80
2019-01-14T21:53:13.965Z,22.33
2019-01-14T21:55:43.577Z,16.10
2019-01-14T21:58:13.488Z,17.13
2019-01-14T22:00:43.140Z,20.90
2019-01-14T22:03:12.839Z,14.83
2019-01-14T22:05:42.528Z,18.57
2019-01-14T22:08:12.132Z,18.87
2019-01-14T22:10:42.012Z,19.63
2019-01-14T22:13:11.657Z,14.97
2019-01-14T22:15:41.560Z,19.30
2019-01-14T22:18:11.396Z,17.33
2019-01-14T22:20:41.022Z,18.80
2019-01-14T22:23:11.119Z,24.00
2019-01-14T22:25:40.943Z,14.93
2019-01-14T22:28:10.924Z,20.70
2019-01-14T22:30:41.837Z,15.17
2019-01-14T22:33:11.963Z,15.27
2019-01-14T22:35:42.174Z,18.10
2019-01-14T22:38:12.069Z,19.27
2019-01-14T22:40:41.748Z,16.17
2019-01-14T22:43:11.928Z,21.10
2019-01-14T22:45:41.561Z,17.07
2019-01-14T22:48:11.223Z,19.43
2019-01-14T22:50:40.903Z,10.53
2019-01-14T22:53:11.064Z,16.93
2019-01-14T22:55:40.948Z,16.40
2019-01-14T22:58:10.872Z,15.40
2019-01-14T23:01:14.526Z,14.80
2019-01-14T23:03:46.782Z,20.70
2019-01-14T23:06:16.446Z,17.80
2019-01-14T23:08:46.724Z,20.13
2019-01-14T23:11:16.616Z,20.77
2019-01-14T23:13:46.612Z,17.00
2019-01-14T23:16:16.288Z,17.10
2019-01-14T23:18:46.342Z,19.57
2019-01-14T23:21:16.339Z,26.23
2019-01-14T23:23:46.030Z,18.53
2019-01-14T23:26:15.788Z,22.27
2019-01-14T23:28:45.519Z,19.27
2019-01-14T23:31:15.747Z,16.70
2019-01-14T23:33:45.688Z,14.90
2019-01-14T23:36:15.389Z,14.93
2019-01-14T23:38:45.149Z,19.37
2019-01-14T23:41:14.876Z,22.43
2019-01-14T23:43:44.541Z,16.53
2019-01-14T23:46:14.662Z,19.27
2019-01-14T23:48:44.557Z,22.53
2019-01-14T23:51:14.357Z,20.80
2019-01-14T23:53:44.272Z,19.43
2019-01-14T23:56:13.962Z,23.53
2019-01-14T23:58:44.729Z,15.77
